createdAt,value
2022-08-03T00:00:26.456Z,20.44
2022-08-03T00:02:53.437Z,20.44
2022-08-03T00:05:20.449Z,20.43
2022-08-03T00:07:48.470Z,20.40
2022-08-03T00:10:16.715Z,20.30
2022-08-03T00:12:43.516Z,20.21
2022-08-03T00:15:15.265Z,20.11
2022-08-03T00:17:52.935Z,20.03
2022-08-03T00:20:24.114Z,20.01
2022-08-03T00:22:51.620Z,19.96
2022-08-03T00:25:18.468Z,19.92
2022-08-03T00:27:45.630Z,19.83
2022-08-03T00:30:16.848Z,19.74
2022-08-03T00:32:45.338Z,19.62
2022-08-03T00:35:32.581Z,19.60
2022-08-03T00:38:00.029Z,19.57
2022-08-03T00:40:27.161Z,19.48
2022-08-03T00:43:02.026Z,19.36
2022-08-03T00:45:37.602Z,19.39
2022-08-03T00:48:05.966Z,19.40
2022-08-03T00:50:54.174Z,19.43
2022-08-03T00:53:21.233Z,19.35
2022-08-03T00:55:48.055Z,19.33
2022-08-03T00:58:15.194Z,19.25
2022-08-03T01:00:42.574Z,19.20
2022-08-03T01:03:11.882Z,19.17
2022-08-03T01:05:50.887Z,19.19
2022-08-03T01:08:26.340Z,19.20
2022-08-03T01:11:11.420Z,19.16
2022-08-03T01:14:04.222Z,19.09
2022-08-03T01:16:37.027Z,19.03
2022-08-03T01:19:31.580Z,18.94
2022-08-03T01:22:21.838Z,18.85
2022-08-03T01:24:48.613Z,18.83
2022-08-03T01:27:21.359Z,18.78
2022-08-03T01:29:48.109Z,18.75
2022-08-03T01:32:58.119Z,18.73
2022-08-03T01:35:11.606Z,18.70
2022-08-03T01:38:06.878Z,18.71
2022-08-03T01:40:36.805Z,18.68
2022-08-03T01:43:06.482Z,18.68
2022-08-03T01:45:34.495Z,18.70
2022-08-03T01:48:02.796Z,18.59
2022-08-03T01:50:31.953Z,18.51
2022-08-03T01:52:59.650Z,18.47
2022-08-03T01:55:28.383Z,18.50
2022-08-03T01:58:05.178Z,18.45
2022-08-03T02:00:36.404Z,18.42
2022-08-03T02:03:06.430Z,18.48
2022-08-03T02:05:34.377Z,18.49
2022-08-03T02:08:04.569Z,18.48
2022-08-03T02:10:35.568Z,18.43
2022-08-03T02:13:05.895Z,18.39
2022-08-03T02:15:34.003Z,18.37
2022-08-03T02:18:03.252Z,18.34
2022-08-03T02:20:33.220Z,18.30
2022-08-03T02:23:00.361Z,18.21
2022-08-03T02:25:28.711Z,18.23
2022-08-03T02:27:58.455Z,18.21
2022-08-03T02:30:38.024Z,18.17
2022-08-03T02:33:07.678Z,18.15
2022-08-03T02:35:36.604Z,18.07
2022-08-03T02:38:07.645Z,18.01
2022-08-03T02:40:34.501Z,18.02
2022-08-03T02:43:07.698Z,18.00
2022-08-03T02:45:45.392Z,18.05
2022-08-03T02:48:17.991Z,18.13
2022-08-03T02:50:45.800Z,18.09
2022-08-03T02:53:14.077Z,18.32
2022-08-03T02:55:43.109Z,18.41
2022-08-03T02:58:14.074Z,18.45
2022-08-03T03:00:44.067Z,18.42
2022-08-03T03:03:11.400Z,18.32
2022-08-03T03:05:52.375Z,18.30
2022-08-03T03:08:26.247Z,18.24
2022-08-03T03:10:58.206Z,18.16
2022-08-03T03:13:27.054Z,18.13
2022-08-03T03:15:56.611Z,18.03
2022-08-03T03:18:25.120Z,17.96
2022-08-03T03:20:54.146Z,17.84
2022-08-03T03:23:23.393Z,17.77
2022-08-03T03:25:52.422Z,17.80
2022-08-03T03:28:19.670Z,17.81
2022-08-03T03:30:52.674Z,17.86
2022-08-03T03:33:21.096Z,17.82
2022-08-03T03:35:48.478Z,17.81
2022-08-03T03:38:15.366Z,17.72
2022-08-03T03:40:42.502Z,17.71
2022-08-03T03:43:11.090Z,17.74
2022-08-03T03:45:38.524Z,17.68
2022-08-03T03:48:05.855Z,17.76
2022-08-03T17:59:09.004Z,27.86
2022-08-03T18:02:11.576Z,27.75
2022-08-03T18:04:55.447Z,27.66
2022-08-03T18:07:40.938Z,27.58
2022-08-03T18:10:11.347Z,27.52
2022-08-03T18:12:52.657Z,27.48
2022-08-03T18:15:43.974Z,27.38
2022-08-03T18:18:11.596Z,27.28
2022-08-03T18:20:42.148Z,27.33
2022-08-03T18:23:24.846Z,27.26
2022-08-03T18:26:00.405Z,27.19
2022-08-03T18:28:28.881Z,27.05
2022-08-03T18:30:55.900Z,26.94
2022-08-03T18:34:16.178Z,26.71
2022-08-03T18:36:18.042Z,26.61
2022-08-03T18:38:51.898Z,26.36
2022-08-03T18:41:31.938Z,26.25
2022-08-03T18:44:53.161Z,26.01
2022-08-03T18:47:50.690Z,25.78
2022-08-03T18:50:49.758Z,25.57
2022-08-03T18:54:04.031Z,25.39
2022-08-03T18:56:44.447Z,25.00
2022-08-03T18:59:36.591Z,24.83
2022-08-03T19:02:29.212Z,24.60
2022-08-03T19:05:05.847Z,24.35
2022-08-03T19:07:36.247Z,24.05
2022-08-03T19:10:09.446Z,24.04
2022-08-03T19:12:45.734Z,23.84
2022-08-03T19:15:15.589Z,23.66
2022-08-03T19:17:53.159Z,23.79
2022-08-03T19:20:22.760Z,23.71
2022-08-03T19:22:53.282Z,23.83
2022-08-03T19:25:20.497Z,23.69
2022-08-03T19:28:03.223Z,23.52
2022-08-03T19:30:39.123Z,23.28
2022-08-03T19:33:09.248Z,23.25
2022-08-03T19:35:52.159Z,23.17
2022-08-03T19:38:28.673Z,22.97
2022-08-03T19:41:02.479Z,23.01
2022-08-03T19:44:08.457Z,23.12
2022-08-03T19:46:46.912Z,23.01
2022-08-03T19:49:18.590Z,22.84
2022-08-03T19:52:00.549Z,22.75
2022-08-03T19:54:36.718Z,22.53
2022-08-03T19:57:17.713Z,22.43
2022-08-03T19:59:49.984Z,22.24
2022-08-03T20:02:26.654Z,22.09
2022-08-03T20:04:57.778Z,22.10
2022-08-03T20:07:28.467Z,22.00
2022-08-03T20:09:56.595Z,21.86
2022-08-03T20:15:13.288Z,21.61
2022-08-03T20:17:55.964Z,21.59
2022-08-03T20:20:29.821Z,21.40
2022-08-03T20:22:58.419Z,21.20
2022-08-03T20:25:37.583Z,21.16
2022-08-03T20:28:26.600Z,21.16
2022-08-03T20:30:53.820Z,21.03
2022-08-03T20:33:27.816Z,21.01
2022-08-03T20:36:07.824Z,21.01
2022-08-03T20:38:43.715Z,21.02
2022-08-03T20:41:14.175Z,20.97
2022-08-03T20:43:41.624Z,20.89
2022-08-03T20:46:29.083Z,20.78
2022-08-03T20:48:58.940Z,20.90
2022-08-03T20:51:49.728Z,20.92
2022-08-03T20:54:22.442Z,20.95
2022-08-03T20:56:58.194Z,20.91
2022-08-03T20:59:38.533Z,20.76
2022-08-03T21:02:19.785Z,20.57
2022-08-03T21:04:56.300Z,20.38
2022-08-03T21:07:24.313Z,20.19
2022-08-03T21:09:55.913Z,20.18
2022-08-03T21:12:35.611Z,20.11
2022-08-03T21:13:03.678Z,21.81
2022-08-03T21:15:05.335Z,20.18
2022-08-03T21:17:41.429Z,20.21
2022-08-03T21:20:10.818Z,20.32
2022-08-03T21:22:38.930Z,20.22
2022-08-03T21:25:10.435Z,20.22
2022-08-03T21:27:37.741Z,20.24
2022-08-03T21:30:08.390Z,20.25
2022-08-03T21:32:36.337Z,20.22
2022-08-03T21:35:03.190Z,20.25
2022-08-03T21:37:30.054Z,20.25
2022-08-03T21:39:57.100Z,20.09
2022-08-03T21:42:24.378Z,20.10
2022-08-03T21:44:54.436Z,20.09
2022-08-03T21:47:24.657Z,20.04
2022-08-03T21:50:08.859Z,19.94
2022-08-03T21:52:45.589Z,20.02
2022-08-03T21:55:18.440Z,19.97
2022-08-03T21:57:53.174Z,19.90
2022-08-03T22:00:22.991Z,19.82
2022-08-03T22:02:55.774Z,19.76
2022-08-03T22:05:29.105Z,19.69
2022-08-03T22:08:13.923Z,19.69
2022-08-03T22:10:44.178Z,19.68
2022-08-03T22:13:13.026Z,19.63
2022-08-03T22:15:40.211Z,19.60
2022-08-03T22:18:06.986Z,19.55
2022-08-03T22:20:33.897Z,19.50
2022-08-03T22:23:03.991Z,19.16
2022-08-03T22:25:33.339Z,19.37
2022-08-03T22:28:08.127Z,19.29
2022-08-03T22:30:35.546Z,19.34
2022-08-03T22:33:05.220Z,19.48
2022-08-03T22:35:49.643Z,19.59
2022-08-03T22:38:18.397Z,19.54
2022-08-03T22:40:48.594Z,19.55
2022-08-03T22:43:15.561Z,19.63
2022-08-03T22:46:07.582Z,19.53
2022-08-03T22:48:33.036Z,19.53
2022-08-03T22:51:00.488Z,19.41
2022-08-03T22:53:27.962Z,19.30
2022-08-03T22:55:55.018Z,19.23
2022-08-03T22:58:22.088Z,19.20
2022-08-03T23:00:55.682Z,19.11
2022-08-03T23:04:00.837Z,19.07
2022-08-03T23:06:15.549Z,18.95
2022-08-03T23:08:46.178Z,18.92
2022-08-03T23:11:13.877Z,18.97
2022-08-03T23:13:41.425Z,19.01
2022-08-03T23:16:08.897Z,18.92
2022-08-03T23:18:39.670Z,18.95
2022-08-03T23:21:10.920Z,18.93
2022-08-03T23:23:44.247Z,19.00
2022-08-03T23:26:12.409Z,19.07
2022-08-03T23:28:41.123Z,19.18
2022-08-03T23:31:08.452Z,19.27
2022-08-03T23:33:38.702Z,19.37
2022-08-03T23:36:18.755Z,19.41
2022-08-03T23:38:53.649Z,19.35
2022-08-03T23:41:20.631Z,19.32
2022-08-03T23:43:53.715Z,19.24
2022-08-03T23:46:27.341Z,19.18
2022-08-03T23:48:56.651Z,19.18
2022-08-03T23:51:42.051Z,19.21
2022-08-03T23:54:37.066Z,19.30
2022-08-03T23:57:29.444Z,19.34
